createdAt,value
2023-02-28T00:02:11.019Z,26.20
2023-02-28T00:07:13.114Z,25.90
2023-02-28T00:12:16.179Z,31.20
2023-02-28T00:17:23.025Z,38.70
2023-02-28T00:22:31.841Z,28.90
2023-02-28T00:27:35.574Z,23.00
2023-02-28T00:32:40.341Z,22.70
2023-02-28T00:37:43.647Z,21.30
2023-02-28T00:42:47.156Z,19.70
2023-02-28T00:47:51.002Z,21.60
2023-02-28T00:52:56.022Z,24.50
2023-02-28T00:57:58.211Z,28.50
2023-02-28T01:03:01.649Z,28.70
2023-02-28T01:08:04.636Z,28.90
2023-02-28T01:13:07.229Z,30.70
2023-02-28T01:18:12.309Z,30.70
2023-02-28T01:23:14.493Z,35.70
2023-02-28T01:28:17.302Z,30.80
2023-02-28T01:33:20.268Z,28.20
2023-02-28T01:38:23.650Z,26.90
2023-02-28T01:43:32.177Z,25.20
2023-02-28T01:48:41.023Z,30.40
2023-02-28T01:53:50.245Z,27.70
2023-02-28T01:58:53.941Z,30.30
2023-02-28T02:04:02.100Z,25.00
2023-02-28T02:09:04.661Z,26.40
2023-02-28T02:14:36.867Z,29.30
2023-02-28T02:20:14.060Z,26.70
2023-02-28T02:25:35.056Z,22.30
2023-02-28T02:31:04.573Z,23.40
2023-02-28T02:36:38.680Z,22.90
2023-02-28T02:41:51.457Z,22.70
2023-02-28T02:47:02.276Z,24.30
2023-02-28T02:52:12.031Z,26.20
2023-02-28T02:57:37.050Z,29.50
2023-02-28T03:02:42.461Z,26.90
2023-02-28T03:07:47.108Z,26.90
2023-02-28T03:13:01.647Z,27.70
2023-02-28T03:18:12.811Z,28.50
2023-02-28T03:23:20.559Z,31.00
2023-02-28T03:28:46.470Z,27.90
2023-02-28T03:33:56.464Z,31.00
2023-02-28T03:39:13.025Z,27.80
2023-02-28T03:44:25.978Z,28.30
2023-02-28T03:49:33.934Z,29.30
2023-02-28T03:54:45.503Z,29.30
2023-02-28T03:59:55.542Z,33.70
2023-02-28T04:10:00.293Z,37.40
2023-02-28T04:15:02.311Z,37.50
2023-02-28T04:20:10.207Z,38.90
2023-02-28T04:25:12.789Z,42.20
2023-02-28T04:30:15.650Z,41.90
2023-02-28T04:35:18.679Z,40.40
2023-02-28T04:40:21.180Z,47.20
2023-02-28T04:45:23.863Z,42.30
2023-02-28T04:50:26.649Z,31.20
2023-02-28T04:55:29.134Z,35.40
2023-02-28T05:00:31.579Z,37.30
2023-02-28T05:05:33.849Z,36.20
2023-02-28T05:10:37.279Z,34.20
2023-02-28T05:15:39.157Z,38.60
2023-02-28T05:20:41.081Z,39.30
2023-02-28T05:25:43.400Z,27.90
2023-02-28T05:30:45.294Z,34.70
2023-02-28T05:35:48.055Z,39.20
2023-02-28T05:40:50.450Z,39.50
2023-02-28T05:45:52.617Z,35.90
2023-02-28T05:50:54.697Z,45.20
2023-02-28T05:55:57.907Z,44.80
2023-02-28T06:01:01.381Z,49.20
2023-02-28T06:06:03.476Z,39.60
2023-02-28T06:11:05.732Z,45.50
2023-02-28T06:16:09.036Z,45.40
2023-02-28T06:21:11.142Z,42.60
2023-02-28T06:26:13.132Z,54.70
2023-02-28T06:31:17.835Z,34.20
2023-02-28T06:36:19.931Z,35.60
2023-02-28T06:41:25.130Z,37.80
2023-02-28T06:46:27.221Z,36.60
2023-02-28T06:51:29.963Z,36.50
2023-02-28T06:56:32.335Z,46.50
2023-02-28T07:01:35.052Z,48.20
2023-02-28T07:06:39.417Z,42.30
2023-02-28T07:11:43.495Z,41.40
2023-02-28T07:16:46.658Z,44.80
2023-02-28T07:21:48.877Z,35.10
2023-02-28T07:26:50.846Z,33.20
2023-02-28T07:31:54.295Z,30.50
2023-02-28T07:36:56.736Z,28.40
2023-02-28T07:41:58.704Z,34.20
2023-02-28T07:47:01.304Z,32.70
2023-02-28T07:52:05.072Z,27.10
2023-02-28T07:57:07.082Z,30.80
2023-02-28T08:02:14.747Z,27.10
2023-02-28T08:07:18.147Z,24.10
2023-02-28T08:12:20.229Z,23.40
2023-02-28T08:17:22.191Z,23.40
2023-02-28T08:22:24.123Z,25.00
2023-02-28T08:27:26.111Z,25.10
2023-02-28T08:32:30.146Z,22.80
2023-02-28T08:37:32.592Z,21.90
2023-02-28T08:42:34.563Z,23.60
2023-02-28T08:47:36.501Z,25.40
2023-02-28T08:52:39.493Z,17.80
2023-02-28T08:57:50.987Z,18.70
2023-02-28T09:03:02.996Z,18.40
2023-02-28T09:08:05.169Z,17.20
2023-02-28T09:13:07.650Z,17.70
2023-02-28T09:18:09.878Z,15.90
2023-02-28T09:23:13.812Z,13.20
2023-02-28T09:28:18.835Z,17.10
2023-02-28T09:33:22.164Z,18.00
2023-02-28T09:38:24.241Z,13.10
2023-02-28T09:43:33.367Z,14.00
2023-02-28T09:48:41.273Z,11.40
2023-02-28T09:53:45.739Z,13.10
2023-02-28T09:58:59.822Z,12.80
2023-02-28T10:04:09.204Z,12.50
2023-02-28T10:09:25.665Z,15.00
2023-02-28T10:14:30.861Z,13.40
2023-02-28T10:19:43.901Z,12.00
2023-02-28T10:24:49.048Z,13.40
2023-02-28T10:29:53.637Z,15.10
2023-02-28T10:35:08.573Z,12.30
2023-02-28T10:40:36.643Z,12.70
2023-02-28T10:45:39.816Z,15.60
2023-02-28T10:50:48.026Z,15.50
2023-02-28T10:56:07.790Z,16.90
2023-02-28T11:01:16.309Z,14.70
2023-02-28T11:06:32.062Z,16.20
2023-02-28T11:11:44.283Z,19.10
2023-02-28T11:16:46.292Z,15.40
2023-02-28T11:21:57.772Z,17.30
2023-02-28T11:27:00.040Z,16.90
2023-02-28T11:32:14.541Z,23.60
2023-02-28T11:37:19.976Z,20.30
2023-02-28T11:42:46.759Z,21.20
2023-02-28T11:48:07.876Z,21.50
2023-02-28T11:53:35.327Z,19.80
2023-02-28T11:58:56.296Z,19.30
2023-02-28T12:04:11.048Z,22.00
2023-02-28T12:09:16.156Z,24.80
2023-02-28T12:14:56.476Z,24.10
2023-02-28T12:20:15.030Z,21.90
2023-02-28T12:25:29.772Z,22.60
2023-02-28T12:30:54.265Z,25.10
2023-02-28T12:36:00.786Z,22.80
2023-02-28T12:41:21.540Z,25.20
2023-02-28T12:46:51.918Z,23.30
2023-02-28T12:51:54.319Z,22.40
2023-02-28T12:57:19.737Z,26.10
2023-02-28T13:03:01.623Z,19.70
2023-02-28T13:08:41.936Z,20.50
2023-02-28T13:13:46.400Z,20.30
2023-02-28T13:18:49.648Z,24.60
2023-02-28T13:23:59.081Z,22.70
2023-02-28T13:29:11.029Z,20.10
2023-02-28T13:34:17.263Z,18.70
2023-02-28T13:39:40.584Z,17.40
2023-02-28T13:45:27.124Z,20.70
2023-02-28T13:50:39.648Z,19.30
2023-02-28T13:55:54.192Z,18.90
2023-02-28T14:01:07.098Z,20.80
2023-02-28T14:06:11.155Z,19.80
2023-02-28T14:11:45.321Z,19.80
2023-02-28T14:16:51.286Z,20.40
2023-02-28T14:22:23.090Z,19.30
2023-02-28T14:27:37.414Z,18.40
2023-02-28T14:33:10.354Z,19.20
2023-02-28T14:38:25.408Z,20.10
2023-02-28T14:43:29.713Z,21.50
2023-02-28T14:48:32.600Z,20.80
2023-02-28T14:53:38.680Z,18.80
2023-02-28T14:58:41.109Z,20.60
2023-02-28T15:03:45.839Z,20.00
2023-02-28T15:08:48.048Z,19.60
2023-02-28T15:13:53.172Z,24.70
2023-02-28T15:19:00.436Z,23.90
2023-02-28T15:24:34.855Z,19.00
2023-02-28T15:30:10.746Z,24.30
2023-02-28T15:35:41.904Z,19.80
2023-02-28T15:40:57.139Z,20.60
2023-02-28T15:46:07.506Z,22.80
2023-02-28T15:51:23.827Z,20.70
2023-02-28T15:56:30.550Z,19.00
2023-02-28T16:01:40.505Z,19.90
2023-02-28T16:06:45.499Z,23.10
2023-02-28T16:11:55.641Z,20.50
2023-02-28T16:17:06.661Z,26.20
2023-02-28T16:22:10.665Z,27.20
2023-02-28T16:27:23.749Z,25.80
2023-02-28T16:32:25.765Z,30.20
2023-02-28T16:37:28.325Z,29.90
2023-02-28T16:42:32.613Z,31.00
2023-02-28T16:47:35.189Z,38.10
2023-02-28T16:52:37.516Z,49.00
2023-02-28T16:57:41.243Z,49.10
2023-02-28T17:02:44.127Z,37.20
2023-02-28T17:07:47.996Z,43.60
2023-02-28T17:12:50.824Z,43.10
2023-02-28T17:17:52.784Z,81.50
2023-02-28T17:22:55.812Z,247.80
2023-02-28T17:27:58.239Z,92.10
2023-02-28T17:33:00.214Z,78.90
2023-02-28T17:38:02.660Z,75.40
2023-02-28T17:43:05.215Z,65.70
2023-02-28T17:48:07.815Z,58.50
2023-02-28T17:53:09.732Z,57.20
2023-02-28T17:58:13.709Z,60.40
2023-02-28T18:03:16.299Z,60.70
2023-02-28T18:08:18.310Z,61.00
2023-02-28T18:13:20.494Z,60.50
2023-02-28T18:18:22.747Z,63.20
2023-02-28T18:23:25.472Z,96.90
2023-02-28T18:28:28.031Z,68.50
2023-02-28T18:33:30.191Z,63.10
2023-02-28T18:38:34.461Z,71.80
2023-02-28T18:43:38.613Z,75.10
2023-02-28T18:48:41.768Z,73.90
2023-02-28T18:53:44.299Z,85.80
2023-02-28T18:58:46.741Z,74.90
2023-02-28T19:03:50.436Z,81.40
2023-02-28T19:08:59.704Z,74.00
2023-02-28T19:14:02.743Z,76.70
2023-02-28T19:19:05.686Z,87.10
2023-02-28T19:24:07.942Z,81.40
2023-02-28T19:29:10.273Z,82.40
2023-02-28T19:34:12.782Z,77.70
2023-02-28T19:39:15.090Z,76.80
2023-02-28T19:44:17.600Z,78.70
2023-02-28T19:49:19.552Z,79.10
2023-02-28T19:54:22.294Z,71.40
2023-02-28T19:59:35.793Z,70.80
2023-02-28T20:04:41.665Z,70.20
2023-02-28T20:09:45.701Z,71.60
2023-02-28T20:14:49.255Z,74.60
2023-02-28T20:19:51.925Z,76.10
2023-02-28T20:24:54.613Z,67.90
2023-02-28T20:30:09.686Z,68.90
2023-02-28T20:35:11.994Z,63.50
2023-02-28T20:40:14.500Z,65.00
2023-02-28T20:45:17.527Z,64.40
2023-02-28T20:50:20.246Z,71.10
2023-02-28T20:55:22.291Z,108.20
2023-02-28T21:00:26.492Z,117.60
2023-02-28T21:05:29.253Z,130.00
2023-02-28T21:10:32.523Z,125.70
2023-02-28T21:15:38.656Z,123.20
2023-02-28T21:20:40.701Z,125.70
2023-02-28T21:25:43.632Z,154.10
2023-02-28T21:30:45.994Z,166.30
2023-02-28T21:35:48.813Z,163.40
2023-02-28T21:40:51.488Z,188.00
2023-02-28T21:45:53.998Z,188.00
2023-02-28T21:51:04.339Z,172.00
2023-02-28T21:56:11.395Z,183.20
2023-02-28T22:01:15.409Z,193.70
2023-02-28T22:06:24.410Z,203.70
2023-02-28T22:11:27.996Z,158.70
2023-02-28T22:16:44.168Z,159.20
2023-02-28T22:21:53.881Z,171.00
2023-02-28T22:26:56.234Z,167.80
2023-02-28T22:31:58.441Z,177.80
2023-02-28T22:37:01.168Z,194.20
2023-02-28T22:42:03.719Z,231.40
2023-02-28T22:47:07.412Z,240.00
2023-02-28T22:52:11.375Z,209.10
2023-02-28T22:57:14.649Z,204.30
2023-02-28T23:02:16.667Z,195.90
2023-02-28T23:07:19.012Z,204.30
2023-02-28T23:12:21.642Z,204.40
2023-02-28T23:17:23.912Z,166.70
2023-02-28T23:22:25.875Z,156.80
2023-02-28T23:27:28.574Z,149.60
2023-02-28T23:32:30.949Z,137.50
2023-02-28T23:37:34.404Z,138.10
2023-02-28T23:42:37.568Z,126.80
2023-02-28T23:47:39.549Z,119.90
2023-02-28T23:52:41.967Z,115.80
2023-02-28T23:57:44.554Z,106.10
